Time;durP1;ratioP1;P1;durP2;ratioP2;P2;SDS_P1;SDS_P2;PMS_P1;PMS_P2;Temp;Humidity;BMP_temperature;BMP_pressure;BME280_temperature;BME280_humidity;BME280_pressure;Samples;Min_cycle;Max_cycle;Signal;HPM_P1;HPM_P2
2023/03/21 00:01:11;;;;;;;19.48;9.68;;;;;;;8.94;99.45;101589.13;4951222;28;20051;-73
2023/03/21 00:03:37;;;;;;;21.23;9.32;;;;;;;8.95;99.50;101593.59;4952343;28;20483;-73
2023/03/21 00:06:07;;;;;;;16.00;8.20;;;;;;;8.95;100.00;101588.16;4951191;29;20053;-74
2023/03/21 00:08:32;;;;;;;19.38;8.35;;;;;;;8.92;99.85;101581.06;4948577;29;20031;-74
2023/03/21 00:11:01;;;;;;;17.70;8.88;;;;;;;8.91;100.00;101579.31;4951071;28;20049;-75
2023/03/21 00:13:31;;;;;;;16.73;8.65;;;;;;;8.90;100.00;101576.66;4933765;29;20455;-74
2023/03/21 00:16:14;;;;;;;18.40;8.32;;;;;;;8.85;100.00;101574.22;4949206;29;20399;-74
2023/03/21 00:18:47;;;;;;;18.13;9.35;;;;;;;8.85;100.00;101574.22;4950359;28;20043;-75
2023/03/21 00:21:15;;;;;;;15.05;9.35;;;;;;;8.83;100.00;101572.56;4949173;29;20050;-74
2023/03/21 00:23:42;;;;;;;15.75;7.68;;;;;;;8.81;100.00;101566.31;4950610;28;20472;-74
2023/03/21 00:26:08;;;;;;;16.83;8.88;;;;;;;8.79;100.00;101563.69;4949674;28;20035;-74
2023/03/21 00:28:36;;;;;;;17.65;10.57;;;;;;;8.80;100.00;101570.00;4949337;29;20138;-74
2023/03/21 00:31:02;;;;;;;21.30;8.73;;;;;;;8.78;100.00;101561.94;4948892;29;20035;-75
2023/03/21 00:33:28;;;;;;;18.95;9.10;;;;;;;8.76;100.00;101554.84;4950932;28;20503;-74
2023/03/21 00:35:54;;;;;;;18.30;8.50;;;;;;;8.79;100.00;101551.97;4950610;29;20523;-75
2023/03/21 00:38:20;;;;;;;23.65;8.52;;;;;;;8.78;100.00;101545.66;4950797;29;20463;-74
2023/03/21 00:40:46;;;;;;;14.88;8.60;;;;;;;8.80;100.00;101551.88;4948265;28;20027;-74
2023/03/21 00:43:13;;;;;;;20.08;8.90;;;;;;;8.79;100.00;101550.13;4950340;29;20074;-74
2023/03/21 00:45:41;;;;;;;15.77;8.27;;;;;;;8.79;100.00;101549.25;4950071;28;20101;-74
2023/03/21 00:48:12;;;;;;;13.95;8.25;;;;;;;8.81;100.00;101541.91;4917752;29;20059;-75
2023/03/21 00:50:38;;;;;;;16.17;8.30;;;;;;;8.79;100.00;101527.56;4932697;29;20181;-74
2023/03/21 00:53:05;;;;;;;19.52;10.18;;;;;;;8.80;100.00;101540.16;4950624;29;20381;-75
2023/03/21 00:55:32;;;;;;;16.98;8.50;;;;;;;8.75;100.00;101518.69;4949989;28;20159;-75
2023/03/21 00:57:57;;;;;;;14.73;8.10;;;;;;;8.81;100.00;101533.75;4950545;28;20043;-75
2023/03/21 01:00:23;;;;;;;22.60;9.35;;;;;;;8.80;100.00;101521.16;4947615;29;20464;-74
2023/03/21 01:02:55;;;;;;;17.30;8.40;;;;;;;8.78;100.00;101520.38;4950344;28;20043;-74
2023/03/21 01:08:15;;;;;;;17.30;8.90;;;;;;;8.81;100.00;101512.97;4949893;28;20074;-75
2023/03/21 01:10:43;;;;;;;17.98;7.70;;;;;;;8.81;100.00;101509.34;4948161;28;20070;-74
2023/03/21 01:13:10;;;;;;;16.95;7.95;;;;;;;8.81;100.00;101503.91;4949723;29;20446;-74
2023/03/21 01:15:41;;;;;;;19.67;8.43;;;;;;;8.80;100.00;101505.75;4948665;29;20484;-76
2023/03/21 01:18:06;;;;;;;21.15;8.45;;;;;;;8.81;100.00;101502.09;4948352;28;20038;-75
2023/03/21 01:20:32;;;;;;;20.27;9.07;;;;;;;8.76;100.00;101481.59;4950567;29;20016;-75
2023/03/21 01:22:57;;;;;;;16.95;8.20;;;;;;;8.81;100.00;101496.69;4948122;29;20093;-75
2023/03/21 01:25:23;;;;;;;18.08;8.10;;;;;;;8.81;100.00;101493.97;4947499;28;20464;-75
2023/03/21 01:27:49;;;;;;;16.30;8.00;;;;;;;8.82;99.97;101492.13;4948392;29;20121;-74
2023/03/21 01:30:15;;;;;;;11.82;6.70;;;;;;;8.81;100.00;101491.25;4949404;28;20168;-74
2023/03/21 01:32:40;;;;;;;20.15;7.85;;;;;;;8.82;99.46;101489.41;4947996;28;20487;-74
2023/03/21 01:35:06;;;;;;;15.38;8.23;;;;;;;8.81;99.73;101485.81;4948444;28;20105;-74
2023/03/21 01:37:32;;;;;;;13.35;7.72;;;;;;;8.80;99.77;101480.47;4932685;29;20035;-74
2023/03/21 01:39:58;;;;;;;17.48;7.53;;;;;;;8.79;99.64;101474.16;4949773;28;20035;-74
2023/03/21 01:42:23;;;;;;;17.52;8.30;;;;;;;8.79;99.44;101479.59;4955635;28;20049;-75
2023/03/21 01:45:02;;;;;;;14.20;7.22;;;;;;;8.81;99.72;101472.25;4947752;29;20603;-74
2023/03/21 01:47:35;;;;;;;19.30;8.05;;;;;;;8.80;99.28;101475.03;4948096;28;20450;-74
2023/03/21 01:50:21;;;;;;;12.98;6.65;;;;;;;8.80;99.66;101477.75;4934023;29;20047;-74
2023/03/21 01:53:15;;;;;;;15.68;6.63;;;;;;;8.78;99.61;101469.72;4947869;29;20043;-75
2023/03/21 01:55:41;;;;;;;18.58;7.55;;;;;;;8.78;99.45;101475.13;4930866;29;20150;-74
2023/03/21 01:58:17;;;;;;;16.95;8.07;;;;;;;8.79;99.45;101479.59;4947809;28;20491;-74
2023/03/21 02:01:06;;;;;;;16.60;6.38;;;;;;;8.77;99.53;101473.38;4932016;29;20078;-74
2023/03/21 02:03:49;;;;;;;15.70;6.57;;;;;;;8.78;99.07;101466.13;4947052;28;20038;-74
2023/03/21 02:06:42;;;;;;;15.32;6.45;;;;;;;8.78;99.45;101457.97;4941828;29;20039;-74
2023/03/21 02:09:39;;;;;;;15.52;6.47;;;;;;;8.76;99.01;101458.03;4947600;28;20097;-74
2023/03/21 02:12:10;;;;;;;16.98;6.43;;;;;;;8.78;98.91;101453.44;4946653;29;20522;-75
2023/03/21 02:14:37;;;;;;;13.50;5.93;;;;;;;8.76;99.27;101449.91;4947702;28;20039;-75
2023/03/21 02:17:32;;;;;;;14.38;6.68;;;;;;;8.73;98.94;101447.38;4947610;29;20043;-74
2023/03/21 02:20:08;;;;;;;14.25;7.38;;;;;;;8.75;98.55;101450.88;4946095;29;20031;-75
2023/03/21 02:23:03;;;;;;;13.63;6.15;;;;;;;8.74;98.93;101440.13;4947500;28;20491;-75
2023/03/21 02:25:40;;;;;;;17.17;6.53;;;;;;;8.75;98.42;101434.59;4943180;28;20056;-75
2023/03/21 02:28:30;;;;;;;13.10;6.00;;;;;;;8.76;98.73;101435.47;4967681;28;20065;-75
2023/03/21 02:31:22;;;;;;;16.88;6.78;;;;;;;8.75;98.18;101434.59;4966425;28;20038;-75
2023/03/21 02:34:00;;;;;;;21.27;6.90;;;;;;;8.75;99.13;101434.59;4940761;29;20411;-74
2023/03/21 02:36:53;;;;;;;14.52;6.88;;;;;;;8.74;99.21;101426.56;4946961;29;20403;-75
2023/03/21 02:39:37;;;;;;;11.77;6.55;;;;;;;8.74;99.19;101424.72;4947052;28;20158;-75
2023/03/21 02:42:32;;;;;;;13.00;6.22;;;;;;;8.74;99.04;101426.56;4946692;29;20053;-75
2023/03/21 02:45:08;;;;;;;13.73;6.15;;;;;;;8.72;98.37;101418.50;4938260;28;20046;-75
2023/03/21 02:47:46;;;;;;;13.68;6.00;;;;;;;8.72;98.91;101421.22;4947380;29;20039;-75
2023/03/21 02:50:22;;;;;;;15.90;6.93;;;;;;;8.72;98.49;101423.94;4965712;28;20084;-75
2023/03/21 02:52:48;;;;;;;14.13;6.20;;;;;;;8.70;99.16;101423.13;4965547;28;20043;-74
2023/03/21 02:55:25;;;;;;;16.25;6.70;;;;;;;8.71;99.12;101408.59;4945782;28;20031;-75
2023/03/21 02:58:02;;;;;;;14.07;6.47;;;;;;;8.70;98.58;101415.00;4947539;28;20547;-75
2023/03/21 03:00:30;;;;;;;15.38;6.50;;;;;;;8.70;99.29;101409.56;4932471;29;20142;-75
2023/03/21 03:02:56;;;;;;;14.75;6.22;;;;;;;8.69;98.91;101411.41;4946612;28;20043;-74
2023/03/21 03:05:25;;;;;;;15.55;6.55;;;;;;;8.68;99.80;101404.25;4946988;29;20199;-75
2023/03/21 03:08:22;;;;;;;12.52;5.97;;;;;;;8.69;99.19;101399.69;4947142;29;20394;-75
2023/03/21 03:11:21;;;;;;;11.45;6.00;;;;;;;8.66;99.67;101399.84;4945894;28;20070;-75
2023/03/21 03:14:05;;;;;;;15.20;6.07;;;;;;;8.65;99.66;101389.97;4946021;29;20058;-75
2023/03/21 03:16:39;;;;;;;11.60;5.57;;;;;;;8.62;99.22;101391.00;4947958;29;20447;-77
2023/03/21 03:19:19;;;;;;;18.13;7.20;;;;;;;8.62;100.00;101395.53;4947200;28;20043;-75
2023/03/21 03:21:58;;;;;;;14.73;6.72;;;;;;;8.62;99.68;101391.00;4948135;29;20045;-76
2023/03/21 03:24:30;;;;;;;16.52;6.32;;;;;;;8.60;100.00;101387.50;4946926;28;20075;-75
2023/03/21 03:27:09;;;;;;;17.05;6.35;;;;;;;8.60;100.00;101386.63;4946186;29;20043;-76
2023/03/21 03:29:39;;;;;;;17.63;6.18;;;;;;;8.57;100.00;101389.50;4946926;28;20491;-76
2023/03/21 03:32:11;;;;;;;18.23;6.60;;;;;;;8.55;100.00;101383.31;4946699;28;20349;-76
2023/03/21 03:34:41;;;;;;;13.73;6.47;;;;;;;8.54;100.00;101386.97;4944527;28;20045;-76
2023/03/21 03:37:11;;;;;;;15.75;8.20;;;;;;;8.54;100.00;101384.28;4950405;29;20566;-76
2023/03/21 03:39:45;;;;;;;14.35;6.75;;;;;;;8.54;100.00;101389.69;4950276;28;20051;-75
2023/03/21 03:42:35;;;;;;;14.05;6.78;;;;;;;8.53;100.00;101382.50;4949991;29;20039;-75
2023/03/21 03:45:11;;;;;;;16.13;7.13;;;;;;;8.50;100.00;101378.13;4950296;28;20046;-75
2023/03/21 03:47:53;;;;;;;16.10;6.78;;;;;;;8.51;100.00;101374.44;4950970;29;20135;-75
2023/03/21 03:50:38;;;;;;;11.75;6.40;;;;;;;8.53;100.00;101371.66;4950291;29;20239;-75
2023/03/21 03:53:19;;;;;;;15.70;6.82;;;;;;;8.53;100.00;101377.06;4950676;29;20438;-76
2023/03/21 03:55:48;;;;;;;14.02;6.45;;;;;;;8.52;100.00;101368.06;4949292;28;20035;-75
2023/03/21 03:58:19;;;;;;;16.77;7.45;;;;;;;8.52;100.00;101369.91;4950304;28;20035;-76
2023/03/21 04:00:45;;;;;;;18.10;7.20;;;;;;;8.50;100.00;101361.88;4950233;29;20102;-76
2023/03/21 04:03:11;;;;;;;21.77;7.60;;;;;;;8.52;100.00;101370.78;4951320;28;20402;-75
2023/03/21 04:05:36;;;;;;;13.05;6.72;;;;;;;8.49;100.00;101360.13;4934279;29;20475;-75
2023/03/21 04:08:02;;;;;;;15.05;6.88;;;;;;;8.46;100.00;101364.81;4951875;29;20058;-75
2023/03/21 04:10:35;;;;;;;14.55;7.97;;;;;;;8.51;100.00;101357.31;4948862;28;20086;-75
2023/03/21 04:13:00;;;;;;;19.80;6.70;;;;;;;8.51;100.00;101360.91;4934524;28;20035;-75
2023/03/21 04:15:44;;;;;;;13.20;6.90;;;;;;;8.50;100.00;101359.16;4949905;29;20491;-74
2023/03/21 04:18:13;;;;;;;19.05;6.85;;;;;;;8.51;100.00;101354.59;4949887;28;20294;-75
2023/03/21 04:20:38;;;;;;;22.02;7.07;;;;;;;8.49;100.00;101351.97;4933863;29;20037;-74
2023/03/21 04:23:05;;;;;;;18.65;8.45;;;;;;;8.50;100.00;101356.44;4951524;29;20487;-75
2023/03/21 04:25:34;;;;;;;18.40;8.00;;;;;;;8.50;100.00;101350.16;4942007;28;20033;-75
2023/03/21 04:28:03;;;;;;;14.90;6.22;;;;;;;8.51;100.00;101354.59;4933724;29;20067;-75
2023/03/21 04:30:36;;;;;;;20.40;8.60;;;;;;;8.50;100.00;101350.16;4949600;29;20047;-74
2023/03/21 04:33:14;;;;;;;16.52;7.68;;;;;;;8.50;100.00;101347.44;4949787;28;20078;-75
2023/03/21 04:35:47;;;;;;;20.40;7.47;;;;;;;8.51;100.00;101346.47;4949519;29;20579;-75
2023/03/21 04:38:13;;;;;;;17.73;6.88;;;;;;;8.50;100.00;101342.00;4949793;29;20186;-75
2023/03/21 04:40:38;;;;;;;18.05;7.85;;;;;;;8.49;100.00;101342.97;4948020;29;20428;-75
2023/03/21 04:43:04;;;;;;;14.70;7.10;;;;;;;8.49;100.00;101335.72;4949275;29;20070;-75
2023/03/21 04:45:29;;;;;;;18.45;7.70;;;;;;;8.50;100.00;101332.03;4933775;29;20057;-74
2023/03/21 04:47:56;;;;;;;15.43;7.47;;;;;;;8.49;100.00;101332.13;4949237;28;20042;-75
2023/03/21 04:50:21;;;;;;;17.52;6.68;;;;;;;8.50;100.00;101332.03;4948792;29;20043;-74
2023/03/21 04:52:47;;;;;;;17.15;7.68;;;;;;;8.49;100.00;101329.41;4949596;29;20048;-74
2023/03/21 04:55:13;;;;;;;15.48;7.18;;;;;;;8.49;99.97;101330.28;4946485;29;20033;-74
2023/03/21 04:57:39;;;;;;;15.90;7.65;;;;;;;8.50;99.83;101325.75;4949181;28;20043;-74
2023/03/21 05:00:10;;;;;;;19.02;7.45;;;;;;;8.51;99.48;101320.22;4949628;29;20110;-74
2023/03/21 05:02:37;;;;;;;17.60;7.00;;;;;;;8.52;99.51;101323.81;4949408;28;20035;-75
2023/03/21 05:05:09;;;;;;;17.15;7.28;;;;;;;8.53;100.00;101317.41;4949913;28;20045;-74
2023/03/21 05:07:36;;;;;;;24.85;8.65;;;;;;;8.52;99.76;101315.66;4949543;29;20391;-75
2023/03/21 05:10:02;;;;;;;19.48;7.47;;;;;;;8.50;99.35;101306.75;4937578;29;20043;-75
2023/03/21 05:12:28;;;;;;;13.52;7.35;;;;;;;8.54;99.60;101314.63;4949373;28;20152;-74
2023/03/21 05:14:54;;;;;;;12.75;6.63;;;;;;;8.53;99.70;101321.00;4948277;29;20071;-75
2023/03/21 05:17:21;;;;;;;18.23;7.70;;;;;;;8.53;99.59;101323.72;4950887;29;20364;-75
2023/03/21 05:19:49;;;;;;;14.80;8.05;;;;;;;8.53;99.19;101310.16;4948543;28;20039;-74
2023/03/21 05:22:18;;;;;;;17.98;7.20;;;;;;;8.54;99.39;101311.94;4948714;29;20494;-74
2023/03/21 05:24:48;;;;;;;12.32;7.25;;;;;;;8.53;99.60;101321.00;4947462;29;20035;-75
2023/03/21 05:27:33;;;;;;;15.65;7.20;;;;;;;8.55;99.82;101319.09;4947913;29;20055;-75
2023/03/21 05:30:11;;;;;;;16.52;6.45;;;;;;;8.55;99.82;101316.38;4949421;28;20086;-75
2023/03/21 05:32:37;;;;;;;20.52;7.75;;;;;;;8.53;99.65;101306.56;4932960;29;20039;-75
2023/03/21 05:35:04;;;;;;;16.02;7.28;;;;;;;8.55;99.18;101313.66;4947627;28;20522;-74
2023/03/21 05:37:29;;;;;;;21.08;7.68;;;;;;;8.55;99.16;101308.25;4948961;29;20408;-75
2023/03/21 05:39:55;;;;;;;17.50;6.82;;;;;;;8.55;98.95;101310.97;4947438;28;20023;-74
2023/03/21 05:42:25;;;;;;;17.27;6.50;;;;;;;8.55;99.11;101310.09;4948175;29;20121;-75
2023/03/21 05:44:51;;;;;;;12.80;7.28;;;;;;;8.55;99.01;101308.25;4948485;28;20305;-74
2023/03/21 05:47:21;;;;;;;18.58;7.25;;;;;;;8.56;99.16;101309.13;4948362;28;20317;-74
2023/03/21 05:49:48;;;;;;;16.02;7.45;;;;;;;8.53;98.80;101304.72;4947913;28;20491;-75
2023/03/21 05:52:15;;;;;;;17.42;7.15;;;;;;;8.53;98.84;101312.84;4946794;29;20034;-75
2023/03/21 05:54:40;;;;;;;13.43;6.93;;;;;;;8.56;99.15;101315.41;4947893;28;20035;-75
2023/03/21 05:57:07;;;;;;;19.23;7.40;;;;;;;8.57;99.04;101309.03;4947016;28;20043;-75
2023/03/21 05:59:51;;;;;;;13.13;7.07;;;;;;;8.59;98.51;101307.09;4949293;28;20097;-75
2023/03/21 06:02:17;;;;;;;20.67;7.57;;;;;;;8.59;98.66;101304.41;4948278;29;20039;-75
2023/03/21 06:04:43;;;;;;;16.40;6.88;;;;;;;8.59;99.28;101306.25;4953518;28;20038;-75
2023/03/21 06:07:09;;;;;;;16.08;6.70;;;;;;;8.56;98.72;101304.56;4949190;28;20038;-74
2023/03/21 06:09:36;;;;;;;14.40;7.10;;;;;;;8.59;98.69;101309.81;4946566;29;20495;-74
2023/03/21 06:12:02;;;;;;;19.33;7.18;;;;;;;8.61;98.29;101315.16;4948726;29;20031;-74
2023/03/21 06:14:38;;;;;;;18.50;6.30;;;;;;;8.61;98.19;101310.59;4947913;28;20527;-75
2023/03/21 06:17:26;;;;;;;19.17;6.90;;;;;;;8.65;98.99;101308.59;4949258;29;20058;-75
2023/03/21 06:19:59;;;;;;;21.08;6.65;;;;;;;8.67;97.97;101306.66;4947690;28;20125;-75
2023/03/21 06:22:32;;;;;;;21.05;6.05;;;;;;;8.69;98.70;101316.47;4933372;29;20031;-75
2023/03/21 06:24:59;;;;;;;17.48;5.97;;;;;;;8.72;98.33;101317.25;4945857;28;20065;-75
2023/03/21 06:27:25;;;;;;;14.82;6.90;;;;;;;8.74;98.31;101318.03;4950615;28;20041;-75
2023/03/21 06:29:53;;;;;;;15.95;6.82;;;;;;;8.74;98.47;101309.91;4950911;28;20105;-75
2023/03/21 06:32:19;;;;;;;12.90;6.57;;;;;;;8.78;98.53;101322.34;4946410;29;20039;-74
2023/03/21 06:34:47;;;;;;;17.52;6.53;;;;;;;8.82;98.60;101322.06;4943561;29;20483;-74
2023/03/21 06:37:14;;;;;;;13.15;5.72;;;;;;;8.84;98.79;101322.84;4958041;28;20035;-75
2023/03/21 06:39:40;;;;;;;15.70;6.32;;;;;;;8.86;98.74;101322.75;4945589;29;20046;-75
2023/03/21 06:42:05;;;;;;;12.65;5.90;;;;;;;8.88;99.06;101315.41;4948508;28;20491;-75
2023/03/21 06:44:32;;;;;;;15.45;5.93;;;;;;;8.89;99.56;101320.75;4965933;28;20444;-76
2023/03/21 06:47:02;;;;;;;12.95;5.35;;;;;;;8.90;100.00;101327.03;4948002;28;20069;-75
2023/03/21 06:49:28;;;;;;;11.68;5.70;;;;;;;8.91;100.00;101326.09;4961310;28;20061;-76
2023/03/21 06:51:56;;;;;;;13.50;6.47;;;;;;;8.92;99.88;101317.84;4949573;28;20088;-76
2023/03/21 06:54:22;;;;;;;10.88;5.78;;;;;;;8.93;100.00;101326.88;4947843;28;20487;-76
2023/03/21 06:56:55;;;;;;;;;;;;;;;8.98;99.81;101324.75;4948604;28;20038;-77
2023/03/21 06:59:33;;;;;;;26.50;6.25;;;;;;;8.98;100.00;101323.88;4955458;28;19921;-76
2023/03/21 07:02:04;;;;;;;14.20;5.32;;;;;;;8.96;100.00;101324.00;4965258;28;20050;-76
2023/03/21 07:04:34;;;;;;;12.55;5.05;;;;;;;8.97;100.00;101331.16;4946470;29;20059;-77
2023/03/21 07:07:00;;;;;;;16.90;5.63;;;;;;;8.97;100.00;101327.56;4931292;28;20438;-77
2023/03/21 07:09:27;;;;;;;22.02;6.65;;;;;;;8.99;100.00;101328.34;4946143;28;20031;-77
2023/03/21 07:11:54;;;;;;;11.30;5.68;;;;;;;8.99;100.00;101331.06;4959891;28;20483;-76
2023/03/21 07:14:24;;;;;;;17.02;6.25;;;;;;;9.00;100.00;101333.72;4935159;28;20031;-77
2023/03/21 07:16:50;;;;;;;12.18;5.68;;;;;;;9.01;100.00;101337.28;4951674;28;20031;-76
2023/03/21 07:19:15;;;;;;;11.68;5.95;;;;;;;9.02;100.00;101339.91;4948567;28;20082;-77
2023/03/21 07:21:41;;;;;;;14.52;5.80;;;;;;;9.05;100.00;101339.75;4947317;29;20372;-77
2023/03/21 07:24:07;;;;;;;14.10;5.93;;;;;;;9.09;100.00;101345.84;4947014;28;20133;-77
2023/03/21 07:26:33;;;;;;;14.77;6.38;;;;;;;9.13;100.00;101340.16;4946666;28;20070;-77
2023/03/21 07:28:59;;;;;;;14.23;6.13;;;;;;;9.15;100.00;101335.53;4947921;29;20039;-76
2023/03/21 07:31:25;;;;;;;17.40;6.68;;;;;;;9.18;100.00;101342.59;4931313;29;20093;-77
2023/03/21 07:33:52;;;;;;;17.67;6.15;;;;;;;9.16;100.00;101345.41;4949656;28;20145;-76
2023/03/21 07:36:17;;;;;;;12.90;5.25;;;;;;;9.17;100.00;101349.84;4950477;28;20348;-76
2023/03/21 07:38:44;;;;;;;18.98;6.47;;;;;;;9.17;100.00;101341.72;4950199;28;20301;-76
2023/03/21 07:41:11;;;;;;;15.88;6.35;;;;;;;9.17;100.00;101335.41;4957389;28;20031;-76
2023/03/21 07:43:37;;;;;;;14.10;6.13;;;;;;;9.20;100.00;101340.69;4966180;28;20030;-76
2023/03/21 07:46:03;;;;;;;15.70;5.90;;;;;;;9.24;100.00;101333.22;4950474;28;20410;-75
2023/03/21 07:48:29;;;;;;;10.90;5.60;;;;;;;9.25;100.00;101335.84;4960034;28;20047;-76
2023/03/21 07:50:55;;;;;;;12.27;5.80;;;;;;;9.29;100.00;101336.56;4948342;29;20039;-76
2023/03/21 07:53:20;;;;;;;22.15;7.10;;;;;;;9.30;100.00;101335.56;4947437;29;20043;-76
2023/03/21 07:55:49;;;;;;;14.57;7.13;;;;;;;9.28;100.00;101323.91;4947677;28;20047;-75
2023/03/21 07:58:15;;;;;;;14.55;6.30;;;;;;;9.28;100.00;101316.66;4948483;28;20039;-75
2023/03/21 08:00:41;;;;;;;16.65;6.60;;;;;;;9.31;100.00;101319.19;4948626;28;20043;-75
2023/03/21 08:03:06;;;;;;;13.88;6.78;;;;;;;9.28;100.00;101303.09;4946925;28;20039;-75
2023/03/21 08:05:34;;;;;;;14.27;7.72;;;;;;;9.33;100.00;101313.69;4949148;29;20047;-75
2023/03/21 08:08:00;;;;;;;16.35;6.88;;;;;;;9.36;100.00;101306.19;4954443;28;20479;-76
2023/03/21 08:10:26;;;;;;;15.98;7.32;;;;;;;9.42;100.00;101305.84;4956943;28;20054;-75
2023/03/21 08:12:51;;;;;;;14.20;6.75;;;;;;;9.49;100.00;101295.47;4949764;28;20604;-76
2023/03/21 08:15:17;;;;;;;13.73;7.65;;;;;;;9.54;100.00;101300.63;4946889;29;20063;-75
2023/03/21 08:17:44;;;;;;;16.52;7.97;;;;;;;9.59;100.00;101285.81;4948346;29;20027;-75
2023/03/21 08:20:12;;;;;;;16.98;7.85;;;;;;;9.66;100.00;101291.75;4947990;28;20054;-75
2023/03/21 08:22:37;;;;;;;18.88;7.82;;;;;;;9.71;100.00;101286.91;4951489;28;20038;-75
2023/03/21 08:25:04;;;;;;;23.52;8.15;;;;;;;9.78;100.00;101281.94;4950712;28;20098;-75
2023/03/21 08:27:31;;;;;;;15.88;7.57;;;;;;;9.81;100.00;101279.91;4950102;29;20050;-75
2023/03/21 08:29:58;;;;;;;19.60;8.82;;;;;;;9.84;100.00;101277.03;4949887;28;20118;-75
2023/03/21 08:32:30;;;;;;;15.75;7.78;;;;;;;9.86;100.00;101275.06;4949422;29;20050;-75
2023/03/21 08:35:03;;;;;;;15.98;7.50;;;;;;;9.86;100.00;101275.06;4949442;28;20039;-75
2023/03/21 08:37:29;;;;;;;19.40;8.90;;;;;;;9.81;100.00;101269.06;4950277;29;20039;-75
2023/03/21 08:39:54;;;;;;;19.13;7.88;;;;;;;9.82;100.00;101268.06;4950548;28;20047;-75
2023/03/21 08:42:20;;;;;;;20.63;7.95;;;;;;;9.81;100.00;101274.50;4933017;29;20503;-75
2023/03/21 08:44:46;;;;;;;15.95;7.32;;;;;;;9.83;100.00;101279.81;4950979;28;20090;-74
2023/03/21 08:47:12;;;;;;;17.55;7.20;;;;;;;9.83;100.00;101277.97;4950533;29;20411;-74
2023/03/21 08:49:37;;;;;;;21.10;6.85;;;;;;;9.86;100.00;101275.06;4951340;28;20039;-75
2023/03/21 08:52:03;;;;;;;15.57;6.15;;;;;;;9.86;100.00;101261.47;4950670;29;20047;-74
2023/03/21 08:54:29;;;;;;;19.55;7.18;;;;;;;9.88;100.00;101264.97;4950010;28;20050;-74
2023/03/21 08:56:54;;;;;;;16.63;7.25;;;;;;;9.93;100.00;101262.84;4949574;28;20048;-75
2023/03/21 08:59:19;;;;;;;12.43;6.03;;;;;;;9.95;100.00;101265.47;4949206;29;20035;-75
2023/03/21 09:01:45;;;;;;;14.82;6.07;;;;;;;9.96;100.00;101262.66;4945588;29;20051;-75
2023/03/21 09:04:11;;;;;;;10.70;5.65;;;;;;;9.99;99.15;101258.88;4931314;29;20042;-74
2023/03/21 09:06:39;;;;;;;12.70;7.25;;;;;;;10.04;100.00;101256.72;4939855;29;20471;-74
2023/03/21 09:09:08;;;;;;;17.38;6.28;;;;;;;10.05;99.61;101252.16;4948674;29;20031;-74
2023/03/21 09:11:34;;;;;;;16.17;6.30;;;;;;;10.10;99.08;101256.34;4942030;28;20047;-74
2023/03/21 09:13:59;;;;;;;17.65;6.13;;;;;;;10.12;98.57;101253.53;4950599;28;20089;-74
2023/03/21 09:16:25;;;;;;;12.45;6.47;;;;;;;10.15;99.64;101254.19;4964939;28;20359;-74
2023/03/21 09:18:54;;;;;;;14.55;5.88;;;;;;;10.22;99.96;101249.25;4942006;29;20073;-74
2023/03/21 09:21:21;;;;;;;14.13;6.65;;;;;;;10.28;99.13;101248.00;4929541;29;20055;-74
2023/03/21 09:23:51;;;;;;;19.70;6.60;;;;;;;10.30;97.66;101249.63;4931228;29;20110;-74
2023/03/21 09:26:20;;;;;;;11.20;5.57;;;;;;;10.36;98.38;101251.97;4915341;29;20066;-74
2023/03/21 09:28:46;;;;;;;13.57;5.50;;;;;;;10.32;97.70;101239.56;4936830;28;20031;-74
2023/03/21 09:31:13;;;;;;;11.27;5.70;;;;;;;10.34;98.29;101242.16;4943589;28;20055;-74
2023/03/21 09:33:42;;;;;;;14.90;6.35;;;;;;;10.36;98.06;101237.50;4942115;29;20225;-73
2023/03/21 09:36:12;;;;;;;15.27;5.97;;;;;;;10.38;97.93;101241.84;4945191;29;20031;-74
2023/03/21 09:38:41;;;;;;;12.52;5.38;;;;;;;10.39;97.79;101235.44;4931068;29;20094;-73
2023/03/21 09:41:15;;;;;;;14.77;6.60;;;;;;;10.46;97.85;101236.78;4929634;29;20016;-73
2023/03/21 09:43:51;;;;;;;9.50;5.80;;;;;;;10.52;97.78;101235.50;4930662;29;20039;-73
2023/03/21 09:46:25;;;;;;;9.18;4.97;;;;;;;10.59;97.15;101239.59;4930228;29;20122;-73
2023/03/21 09:49:10;;;;;;;30.42;6.43;;;;;;;10.60;97.39;101233.16;4930336;29;20538;-73
2023/03/21 09:51:44;;;;;;;16.52;5.20;;;;;;;10.57;95.97;101227.91;4930013;29;20514;-74
2023/03/21 09:54:32;;;;;;;15.75;5.10;;;;;;;10.65;96.25;101221.97;4930343;29;20035;-73
2023/03/21 09:57:21;;;;;;;11.65;5.20;;;;;;;10.65;95.27;101228.28;4929922;29;20051;-73
2023/03/21 09:59:49;;;;;;;13.20;5.78;;;;;;;10.70;95.97;101222.53;4913080;29;20460;-73
2023/03/21 10:02:39;;;;;;;9.77;4.72;;;;;;;10.78;96.25;101222.91;4956868;28;20043;-73
2023/03/21 10:05:27;;;;;;;11.07;4.80;;;;;;;10.86;95.46;101209.63;4952287;28;20383;-72
2023/03/21 10:08:04;;;;;;;10.20;5.10;;;;;;;10.92;93.17;101208.38;4968346;28;20050;-73
2023/03/21 10:10:40;;;;;;;13.40;6.22;;;;;;;10.98;92.38;101206.09;4944634;28;20138;-73
2023/03/21 10:13:14;;;;;;;8.98;4.90;;;;;;;11.11;93.43;101207.97;4964638;28;20039;-73
2023/03/21 10:15:39;;;;;;;13.40;5.00;;;;;;;11.22;94.50;101202.66;4953751;28;20043;-73
2023/03/21 10:18:12;;;;;;;17.95;5.55;;;;;;;11.26;92.73;101200.59;4959491;28;20451;-73
2023/03/21 10:20:41;;;;;;;13.77;5.30;;;;;;;11.35;93.88;101198.09;4959622;28;20027;-74
2023/03/21 10:23:11;;;;;;;14.77;5.20;;;;;;;11.48;94.32;101196.25;4960840;28;20043;-74
2023/03/21 10:25:45;;;;;;;11.32;4.88;;;;;;;11.57;93.26;101202.91;4945220;29;20039;-73
2023/03/21 10:28:17;;;;;;;12.43;4.75;;;;;;;11.64;93.42;101189.72;4948483;29;20070;-73
2023/03/21 10:30:52;;;;;;;10.27;5.18;;;;;;;11.74;90.64;101188.06;4935166;29;20058;-74
2023/03/21 10:33:24;;;;;;;12.15;4.95;;;;;;;11.87;91.55;101193.53;4947315;28;20043;-73
2023/03/21 10:36:01;;;;;;;11.52;5.43;;;;;;;11.94;89.85;101195.72;4948344;29;20069;-74
2023/03/21 10:38:26;;;;;;;12.73;5.00;;;;;;;12.05;91.01;101189.47;4948296;28;20041;-74
2023/03/21 10:40:52;;;;;;;9.68;4.90;;;;;;;12.15;87.35;101193.25;4946058;28;20035;-74
2023/03/21 10:43:20;;;;;;;15.73;5.80;;;;;;;12.30;89.27;101183.06;4948063;28;20045;-74
2023/03/21 10:45:47;;;;;;;9.60;4.93;;;;;;;12.49;89.38;101194.34;4958637;28;20046;-74
2023/03/21 10:48:12;;;;;;;9.27;4.72;;;;;;;12.52;87.78;101199.59;4945348;28;20122;-74
2023/03/21 10:50:38;;;;;;;13.98;4.97;;;;;;;12.55;87.79;101187.59;4946563;29;20126;-74
2023/03/21 10:53:16;;;;;;;11.85;4.68;;;;;;;12.64;88.54;101194.22;4947064;29;20484;-73
2023/03/21 10:55:42;;;;;;;8.85;4.70;;;;;;;12.70;87.67;101202.78;4945940;28;20039;-74
2023/03/21 10:58:17;;;;;;;13.30;4.20;;;;;;;12.73;86.30;101197.13;4930649;29;20023;-74
2023/03/21 11:00:44;;;;;;;10.48;4.20;;;;;;;12.89;87.75;101202.25;4946639;29;20078;-74
2023/03/21 11:03:22;;;;;;;14.60;5.70;;;;;;;12.93;85.48;101186.53;4938879;28;20046;-74
2023/03/21 11:05:51;;;;;;;10.80;4.57;;;;;;;13.01;84.54;101182.22;4946867;29;20031;-74
2023/03/21 11:08:18;;;;;;;9.15;4.75;;;;;;;13.08;82.09;101179.00;4948483;29;20419;-74
2023/03/21 11:10:51;;;;;;;11.57;4.18;;;;;;;13.15;83.97;101188.44;4947410;28;20039;-73
2023/03/21 11:13:22;;;;;;;7.90;4.30;;;;;;;13.12;80.03;101178.66;4948082;29;20693;-74
2023/03/21 11:15:57;;;;;;;9.50;4.22;;;;;;;13.16;83.58;101179.28;4948349;29;20070;-74
2023/03/21 11:18:29;;;;;;;8.65;4.30;;;;;;;13.16;82.10;101187.47;4947009;28;20582;-74
2023/03/21 11:21:02;;;;;;;7.43;4.13;;;;;;;13.12;79.49;101178.66;4947996;29;20142;-74
2023/03/21 11:23:30;;;;;;;12.13;4.10;;;;;;;13.02;79.73;101183.09;4948351;28;20558;-74
2023/03/21 11:25:58;;;;;;;9.05;3.60;;;;;;;13.02;78.98;101186.69;4951020;28;20510;-73
2023/03/21 11:28:32;;;;;;;12.88;3.88;;;;;;;13.06;81.15;101184.59;4963578;28;20113;-73
2023/03/21 11:31:00;;;;;;;10.90;4.10;;;;;;;13.09;79.92;101184.34;4963260;28;20043;-74
2023/03/21 11:33:36;;;;;;;7.20;3.58;;;;;;;13.16;82.31;101163.75;4946409;28;20023;-74
2023/03/21 11:36:02;;;;;;;9.68;3.80;;;;;;;13.23;79.35;101172.38;4949670;28;20062;-74
2023/03/21 11:38:35;;;;;;;6.28;3.28;;;;;;;13.12;78.28;101164.13;4962493;28;20514;-74